Time;durP1;ratioP1;P1;durP2;ratioP2;P2;SDS_P1;SDS_P2;PMS_P1;PMS_P2;Temp;Humidity;BMP_temperature;BMP_pressure;BME280_temperature;BME280_humidity;BME280_pressure;Samples;Min_cycle;Max_cycle;Signal;HPM_P1;HPM_P2
2021/06/27 00:00:38;;;;;;;2.22;0.90;;;;;;;25.39;39.09;100341.09;5033437;28;20107;-41
2021/06/27 00:03:07;;;;;;;2.15;1.25;;;;;;;25.38;39.07;100342.09;5033413;28;20049;-42
2021/06/27 00:05:35;;;;;;;1.15;0.70;;;;;;;25.38;39.09;100335.94;5033990;28;20087;-41
2021/06/27 00:08:03;;;;;;;0.80;0.75;;;;;;;25.38;38.91;100342.09;5034619;28;20481;-41
2021/06/27 00:10:35;;;;;;;1.73;1.10;;;;;;;25.39;38.95;100346.44;5034446;28;20045;-42
2021/06/27 00:13:04;;;;;;;3.95;1.00;;;;;;;25.37;39.09;100345.78;5034407;28;20045;-42
2021/06/27 00:15:35;;;;;;;2.63;1.10;;;;;;;25.34;39.18;100351.44;5034493;28;20065;-41
2021/06/27 00:18:04;;;;;;;1.88;0.90;;;;;;;25.34;39.31;100352.28;5032161;28;20045;-41
2021/06/27 00:20:34;;;;;;;1.50;1.00;;;;;;;25.32;39.27;100354.28;5014218;28;20042;-42
2021/06/27 00:23:03;;;;;;;2.67;0.70;;;;;;;25.36;39.29;100360.13;5033022;28;20050;-42
2021/06/27 00:25:31;;;;;;;1.02;0.93;;;;;;;25.35;39.43;100363.78;5034347;28;20045;-41
2021/06/27 00:28:00;;;;;;;1.25;0.90;;;;;;;25.33;39.44;100363.94;5033673;28;20095;-42
2021/06/27 00:30:27;;;;;;;1.00;1.00;;;;;;;25.34;39.29;100364.78;5034058;28;20042;-42
2021/06/27 00:32:56;;;;;;;2.10;0.90;;;;;;;25.38;39.63;100365.28;5034131;28;20052;-42
2021/06/27 00:35:24;;;;;;;2.38;0.95;;;;;;;25.44;40.83;100362.75;5033355;28;20064;-41
2021/06/27 00:37:51;;;;;;;1.23;0.95;;;;;;;25.51;41.16;100358.41;5033513;28;20136;-42
2021/06/27 00:40:21;;;;;;;2.97;1.30;;;;;;;25.57;41.68;100359.59;5033957;28;20099;-41
2021/06/27 00:42:49;;;;;;;1.95;1.27;;;;;;;25.59;42.33;100361.06;5033420;28;20045;-41
2021/06/27 00:45:19;;;;;;;1.60;0.80;;;;;;;25.61;42.57;100364.38;5033813;28;20504;-41
2021/06/27 00:47:47;;;;;;;1.33;0.90;;;;;;;25.64;42.83;100373.06;5030530;28;20052;-41
2021/06/27 00:50:53;;;;;;;1.23;1.10;;;;;;;25.56;41.90;100372.06;5033693;28;20559;-40
2021/06/27 00:53:20;;;;;;;1.17;0.90;;;;;;;25.50;42.14;100367.41;5033143;28;20107;-42
2021/06/27 00:55:55;;;;;;;1.25;1.15;;;;;;;25.52;42.28;100375.28;5033173;28;20050;-42
2021/06/27 00:58:34;;;;;;;2.95;1.73;;;;;;;25.59;42.72;100377.06;5033180;28;20100;-42
2021/06/27 01:01:04;;;;;;;5.10;1.65;;;;;;;25.64;42.77;100376.56;5033686;28;20079;-42
2021/06/27 01:03:31;;;;;;;2.05;1.20;;;;;;;25.63;42.50;100382.09;5033291;28;20434;-42
2021/06/27 01:05:59;;;;;;;1.45;1.15;;;;;;;25.57;42.30;100383.59;5033825;28;20034;-42
2021/06/27 01:08:26;;;;;;;3.38;1.20;;;;;;;25.54;42.33;100378.59;5033429;28;20057;-41
2021/06/27 01:10:53;;;;;;;2.47;1.48;;;;;;;25.52;42.67;100376.09;5033236;28;20493;-42
2021/06/27 01:13:22;;;;;;;1.33;0.90;;;;;;;25.61;42.72;100382.22;5033489;28;20038;-42
2021/06/27 01:15:51;;;;;;;1.70;1.00;;;;;;;25.67;42.66;100378.03;5031732;28;20068;-42
2021/06/27 01:18:18;;;;;;;3.72;1.20;;;;;;;25.61;42.60;100377.72;5033263;28;20049;-42
2021/06/27 01:20:47;;;;;;;1.30;0.90;;;;;;;25.61;42.53;100377.72;5033172;28;20041;-42
2021/06/27 01:23:15;;;;;;;1.52;1.20;;;;;;;25.58;42.34;100372.75;5033313;28;20099;-42
2021/06/27 01:25:45;;;;;;;1.67;1.20;;;;;;;25.59;42.34;100376.25;5032856;28;20072;-42
2021/06/27 01:28:13;;;;;;;1.20;1.02;;;;;;;25.58;42.42;100370.06;5013429;28;20076;-42
2021/06/27 01:30:41;;;;;;;1.60;1.17;;;;;;;25.58;42.34;100374.59;5013067;28;20616;-42
2021/06/27 01:33:16;;;;;;;1.88;1.00;;;;;;;25.57;42.55;100375.59;5013279;28;20062;-42
2021/06/27 01:35:43;;;;;;;3.40;1.08;;;;;;;25.56;42.35;100377.41;5030530;28;20048;-42
2021/06/27 01:38:12;;;;;;;2.97;1.17;;;;;;;25.57;42.41;100379.09;5032980;28;20057;-42
2021/06/27 01:40:39;;;;;;;2.00;1.27;;;;;;;25.58;42.45;100380.75;5032888;28;20041;-41
2021/06/27 01:43:16;;;;;;;2.47;0.90;;;;;;;25.65;42.72;100386.22;5032870;28;20083;-42
2021/06/27 01:45:48;;;;;;;4.57;1.25;;;;;;;25.65;42.48;100385.41;5032152;28;20050;-42
2021/06/27 01:48:16;;;;;;;1.63;1.00;;;;;;;25.60;42.74;100384.06;5032749;28;20045;-42
2021/06/27 01:50:45;;;;;;;1.65;0.82;;;;;;;25.58;42.47;100386.09;5032660;28;20506;-42
2021/06/27 01:53:15;;;;;;;1.20;1.10;;;;;;;25.58;42.60;100385.25;5032331;28;20072;-41
2021/06/27 01:55:43;;;;;;;1.27;1.17;;;;;;;25.60;42.53;100388.59;5032725;28;20084;-42
2021/06/27 01:58:11;;;;;;;1.27;1.10;;;;;;;25.58;42.46;100388.75;5032620;28;20443;-42
2021/06/27 02:00:39;;;;;;;4.15;1.20;;;;;;;25.59;42.42;100394.94;5032988;28;20053;-42
2021/06/27 02:03:14;;;;;;;5.50;1.23;;;;;;;25.59;42.56;100390.41;5032887;28;20049;-42
2021/06/27 02:05:41;;;;;;;1.25;1.15;;;;;;;25.59;42.60;100382.41;5032520;28;20104;-42
2021/06/27 02:08:08;;;;;;;1.85;1.00;;;;;;;25.65;42.64;100382.75;5032405;28;20045;-42
2021/06/27 02:10:35;;;;;;;3.60;1.20;;;;;;;25.65;42.38;100385.41;5032958;28;20046;-41
2021/06/27 02:13:04;;;;;;;2.10;1.10;;;;;;;25.61;42.66;100383.06;5032483;28;20049;-41
2021/06/27 02:15:30;;;;;;;1.42;1.20;;;;;;;25.60;42.41;100381.41;5032769;28;20042;-42
2021/06/27 02:18:10;;;;;;;5.70;1.15;;;;;;;25.59;42.46;100371.75;5032525;28;20555;-42
2021/06/27 02:20:37;;;;;;;1.05;1.00;;;;;;;25.58;42.60;100362.06;5031925;28;20041;-42
2021/06/27 02:23:05;;;;;;;3.47;1.20;;;;;;;25.58;42.53;100370.06;5032125;28;20068;-42
2021/06/27 02:25:31;;;;;;;2.70;0.98;;;;;;;25.59;42.60;100369.06;5032448;28;20068;-42
2021/06/27 02:27:58;;;;;;;1.15;0.90;;;;;;;25.65;42.61;100359.53;5031279;28;20606;-41
2021/06/27 02:30:25;;;;;;;0.98;0.88;;;;;;;25.61;42.32;100359.03;5031617;28;20045;-41
2021/06/27 02:32:52;;;;;;;2.95;1.23;;;;;;;25.57;42.33;100364.91;5032498;28;20041;-42
2021/06/27 02:35:19;;;;;;;1.13;1.00;;;;;;;25.55;42.89;100358.91;5026903;28;20066;-42
2021/06/27 02:37:46;;;;;;;1.40;1.30;;;;;;;25.62;42.75;100346.56;5012562;28;20562;-42
2021/06/27 02:40:14;;;;;;;1.50;1.02;;;;;;;25.66;42.54;100339.84;5016828;28;20069;-41
2021/06/27 02:42:41;;;;;;;1.35;0.93;;;;;;;25.60;42.53;100328.03;5031306;28;20049;-42
2021/06/27 02:45:11;;;;;;;1.40;1.30;;;;;;;25.59;43.12;100325.53;5032645;28;20061;-40
2021/06/27 02:47:39;;;;;;;2.33;1.02;;;;;;;25.65;42.83;100327.50;5032441;28;20048;-42
2021/06/27 02:50:09;;;;;;;1.80;1.15;;;;;;;25.66;42.64;100323.81;5032191;28;20049;-42
2021/06/27 02:52:37;;;;;;;1.42;1.08;;;;;;;25.62;42.77;100330.53;5032244;28;20041;-42
2021/06/27 02:55:06;;;;;;;1.08;0.98;;;;;;;25.63;42.66;100339.38;5032500;28;20041;-42
2021/06/27 02:57:34;;;;;;;2.03;1.00;;;;;;;25.61;42.69;100336.84;5032650;28;20049;-42
2021/06/27 03:00:01;;;;;;;1.70;1.00;;;;;;;25.61;42.81;100343.03;5035886;28;20057;-42
2021/06/27 03:02:28;;;;;;;1.10;1.00;;;;;;;25.60;42.74;100345.88;5035485;28;20107;-42
2021/06/27 03:04:55;;;;;;;3.75;1.23;;;;;;;25.60;42.79;100348.53;5035905;28;20034;-42
2021/06/27 03:07:22;;;;;;;3.17;1.52;;;;;;;25.66;42.88;100347.84;5021215;28;20053;-42
2021/06/27 03:09:48;;;;;;;3.72;1.77;;;;;;;25.65;42.58;100353.38;5020212;28;20099;-42
2021/06/27 03:12:15;;;;;;;4.75;1.33;;;;;;;25.56;42.34;100358.72;5035564;28;20080;-42
2021/06/27 03:14:43;;;;;;;4.10;1.20;;;;;;;25.55;43.57;100358.91;5035729;28;20038;-42
2021/06/27 03:17:10;;;;;;;1.30;1.20;;;;;;;25.63;43.08;100366.06;5035647;28;20046;-42
2021/06/27 03:19:37;;;;;;;3.05;1.08;;;;;;;25.68;42.82;100364.56;5027073;28;20061;-42
2021/06/27 03:22:04;;;;;;;1.10;1.05;;;;;;;25.64;42.98;100362.38;5015910;28;20092;-41
2021/06/27 03:24:31;;;;;;;1.50;1.30;;;;;;;25.61;42.84;100369.72;5031969;28;20412;-42
2021/06/27 03:26:58;;;;;;;1.25;1.15;;;;;;;25.60;42.94;100367.22;5035374;28;20048;-42
2021/06/27 03:29:25;;;;;;;1.42;1.00;;;;;;;25.59;43.03;100361.06;5035131;28;20041;-42
2021/06/27 03:31:52;;;;;;;2.33;1.00;;;;;;;25.60;42.81;100362.72;5035318;28;20116;-42
2021/06/27 03:34:20;;;;;;;1.75;1.38;;;;;;;25.64;42.84;100363.22;5035103;28;20045;-42
2021/06/27 03:36:47;;;;;;;1.77;1.67;;;;;;;25.69;42.83;100354.69;5035243;28;20049;-42
2021/06/27 03:39:18;;;;;;;1.45;1.30;;;;;;;25.64;43.02;100357.06;5034745;28;20103;-42
2021/06/27 03:42:03;;;;;;;1.17;1.08;;;;;;;25.63;42.90;100350.06;5035077;28;20489;-42
2021/06/27 03:44:30;;;;;;;2.67;1.50;;;;;;;25.61;42.91;100351.03;5034354;28;20037;-41
2021/06/27 03:46:57;;;;;;;0.90;0.90;;;;;;;25.63;42.86;100350.06;5035240;28;20103;-42
2021/06/27 03:49:24;;;;;;;2.38;1.45;;;;;;;25.69;42.94;100347.53;5034896;28;20045;-42
2021/06/27 03:51:52;;;;;;;2.47;1.20;;;;;;;25.67;42.83;100346.00;5034526;28;20071;-42
2021/06/27 03:54:19;;;;;;;7.05;1.30;;;;;;;25.63;42.94;100350.88;5035033;28;20038;-42
2021/06/27 03:56:46;;;;;;;1.90;1.00;;;;;;;25.63;43.04;100358.06;5015274;28;20038;-42
2021/06/27 03:59:13;;;;;;;3.80;1.58;;;;;;;25.64;42.92;100347.19;5013887;28;20053;-42
2021/06/27 04:01:40;;;;;;;2.25;1.30;;;;;;;25.70;42.79;100345.69;5032220;28;20071;-42
2021/06/27 04:04:07;;;;;;;0.90;0.90;;;;;;;25.67;42.90;100349.50;5034634;28;20059;-42
2021/06/27 04:06:34;;;;;;;5.00;1.15;;;;;;;25.66;42.88;100355.03;5034411;28;20439;-42
2021/06/27 04:09:01;;;;;;;1.35;1.23;;;;;;;25.64;43.04;100357.06;5034258;28;20061;-42
2021/06/27 04:11:28;;;;;;;1.63;1.40;;;;;;;25.64;42.97;100354.38;5025431;28;20054;-42
2021/06/27 04:13:55;;;;;;;2.13;1.30;;;;;;;25.61;43.02;100353.69;5014710;28;20092;-42
2021/06/27 04:16:22;;;;;;;1.00;0.88;;;;;;;25.65;43.13;100358.72;5014920;28;20045;-42
2021/06/27 04:18:49;;;;;;;2.70;1.20;;;;;;;25.72;42.93;100357.00;5020758;28;20049;-42
2021/06/27 04:21:16;;;;;;;1.13;1.13;;;;;;;25.70;42.88;100356.34;5034471;28;20037;-42
2021/06/27 04:23:43;;;;;;;1.73;1.13;;;;;;;25.68;42.93;100355.72;5033854;28;20042;-42
2021/06/27 04:26:10;;;;;;;2.88;1.40;;;;;;;25.64;42.95;100360.56;5034434;28;20045;-42
2021/06/27 04:28:37;;;;;;;1.25;1.15;;;;;;;25.64;43.08;100357.06;5033857;28;20125;-42
2021/06/27 04:31:04;;;;;;;2.10;1.10;;;;;;;25.71;42.87;100352.69;5033748;28;20076;-42
2021/06/27 04:33:31;;;;;;;1.35;1.20;;;;;;;25.71;42.65;100348.16;5033751;28;20065;-42
2021/06/27 04:35:58;;;;;;;1.58;1.20;;;;;;;25.64;43.02;100347.19;5034064;28;20044;-42
2021/06/27 04:38:26;;;;;;;1.75;0.98;;;;;;;25.68;43.07;100348.53;5013833;28;20050;-42
2021/06/27 04:40:54;;;;;;;1.95;0.88;;;;;;;25.74;42.88;100347.00;5015255;28;20564;-42
2021/06/27 04:43:21;;;;;;;3.47;1.13;;;;;;;25.63;42.50;100345.53;5033750;28;20041;-42
2021/06/27 04:45:49;;;;;;;0.90;0.90;;;;;;;25.53;42.38;100344.91;5033565;28;20091;-42
2021/06/27 04:48:16;;;;;;;1.40;1.30;;;;;;;25.61;43.71;100358.22;5033942;28;20041;-42
2021/06/27 04:50:46;;;;;;;2.70;1.52;;;;;;;25.68;43.66;100347.69;5033388;28;20095;-42
2021/06/27 04:53:14;;;;;;;1.35;1.25;;;;;;;25.75;42.91;100348.69;5033735;28;20049;-42
2021/06/27 04:55:41;;;;;;;2.45;1.35;;;;;;;25.73;43.23;100350.69;5033337;28;20087;-42
2021/06/27 04:58:08;;;;;;;1.88;1.38;;;;;;;25.72;43.24;100357.00;5033471;28;20045;-42
2021/06/27 05:00:35;;;;;;;1.25;1.17;;;;;;;25.71;43.29;100363.34;5033129;28;20076;-42
2021/06/27 05:03:05;;;;;;;1.30;1.20;;;;;;;25.70;43.23;100362.53;5026247;28;20038;-42
2021/06/27 05:05:32;;;;;;;1.60;1.20;;;;;;;25.70;43.20;100362.53;5028545;28;20045;-42
2021/06/27 05:07:59;;;;;;;1.45;1.10;;;;;;;25.70;43.44;100362.53;5033367;28;20041;-42
2021/06/27 05:10:26;;;;;;;1.73;1.55;;;;;;;25.74;43.35;100368.38;5032932;28;20054;-42
2021/06/27 05:12:53;;;;;;;1.45;0.85;;;;;;;25.72;43.40;100373.84;5033608;28;20042;-42
2021/06/27 05:15:20;;;;;;;2.38;1.30;;;;;;;25.72;43.34;100375.69;5033278;28;20132;-41
2021/06/27 05:17:47;;;;;;;1.00;1.00;;;;;;;25.72;43.35;100373.84;5032811;28;20038;-42
2021/06/27 05:20:14;;;;;;;4.82;1.20;;;;;;;25.73;43.41;100377.38;5032617;28;20103;-41
2021/06/27 05:22:41;;;;;;;2.17;1.23;;;;;;;25.79;43.24;100366.03;5032638;28;20033;-42
2021/06/27 05:25:09;;;;;;;1.25;1.10;;;;;;;25.81;42.90;100369.38;5033221;28;20095;-42
2021/06/27 05:27:36;;;;;;;1.25;1.10;;;;;;;25.80;43.15;100367.72;5032906;28;20048;-42
2021/06/27 05:30:05;;;;;;;2.00;1.08;;;;;;;25.79;43.17;100366.88;5032863;28;20103;-42
2021/06/27 05:32:35;;;;;;;1.83;1.20;;;;;;;25.78;43.26;100372.38;5013431;28;20042;-42
2021/06/27 05:35:04;;;;;;;5.22;1.40;;;;;;;25.79;43.21;100376.72;5013448;28;20046;-42
2021/06/27 05:37:31;;;;;;;6.20;1.40;;;;;;;25.79;43.24;100379.41;5018778;28;20406;-42
2021/06/27 05:40:00;;;;;;;1.10;1.00;;;;;;;25.79;43.13;100371.38;5033219;28;20145;-42
2021/06/27 05:42:27;;;;;;;1.88;1.20;;;;;;;25.79;43.30;100371.38;5032991;28;20041;-42
2021/06/27 05:44:54;;;;;;;1.30;1.20;;;;;;;25.81;43.21;100369.38;5033215;28;20443;-42
2021/06/27 05:47:21;;;;;;;2.08;1.30;;;;;;;25.83;43.22;100372.69;5032856;28;20042;-42
2021/06/27 05:49:48;;;;;;;1.40;1.00;;;;;;;25.83;43.04;100367.34;5032387;28;20103;-42
2021/06/27 05:52:15;;;;;;;1.23;1.00;;;;;;;25.82;43.25;100363.84;5032677;28;20067;-42
2021/06/27 05:54:43;;;;;;;2.92;1.27;;;;;;;25.82;43.09;100368.34;5032705;28;20099;-42
2021/06/27 05:57:11;;;;;;;2.08;1.42;;;;;;;25.82;43.18;100366.50;5032580;28;20042;-42
2021/06/27 05:59:38;;;;;;;1.90;1.27;;;;;;;25.82;43.24;100363.84;5032453;28;20437;-42
2021/06/27 06:02:05;;;;;;;3.47;1.27;;;;;;;25.92;43.17;100370.81;5031444;28;20037;-42
2021/06/27 06:04:32;;;;;;;4.50;1.48;;;;;;;25.88;43.26;100366.81;5032117;28;20064;-42
2021/06/27 06:06:59;;;;;;;8.27;1.63;;;;;;;25.91;43.12;100370.00;5032827;28;20048;-42
2021/06/27 06:09:26;;;;;;;4.20;1.65;;;;;;;25.99;43.04;100367.28;5029188;28;20046;-41
2021/06/27 06:11:53;;;;;;;4.28;2.42;;;;;;;26.04;45.00;100374.78;5024482;28;20041;-41
2021/06/27 06:14:20;;;;;;;5.97;2.38;;;;;;;26.11;44.04;100376.59;5026159;28;20049;-41
2021/06/27 06:16:47;;;;;;;7.03;3.45;;;;;;;26.08;46.47;100376.94;5021997;28;20042;-41
2021/06/27 06:19:18;;;;;;;3.45;1.67;;;;;;;26.09;44.93;100375.91;5027081;28;20037;-41
2021/06/27 06:21:47;;;;;;;6.28;2.75;;;;;;;26.04;46.52;100374.78;5025371;28;20038;-41
2021/06/27 06:24:14;;;;;;;4.28;2.65;;;;;;;26.07;46.64;100377.09;5026558;28;20037;-41
2021/06/27 06:26:41;;;;;;;12.52;3.03;;;;;;;26.08;46.36;100373.44;5022924;28;20512;-41
2021/06/27 06:29:08;;;;;;;8.57;2.60;;;;;;;26.08;46.29;100376.09;5021089;28;20030;-42
2021/06/27 06:31:35;;;;;;;3.88;2.55;;;;;;;26.12;45.75;100378.25;5023514;28;20091;-41
2021/06/27 06:34:03;;;;;;;2.55;2.10;;;;;;;26.17;45.65;100391.09;5027262;28;20187;-38
2021/06/27 06:36:30;;;;;;;1.98;1.88;;;;;;;26.18;45.33;100391.91;5030068;28;20095;-41
2021/06/27 06:38:57;;;;;;;5.45;2.85;;;;;;;26.18;45.24;100394.59;5029952;28;20404;-41
2021/06/27 06:41:24;;;;;;;6.60;2.70;;;;;;;26.17;45.08;100399.09;5026913;28;20042;-41
2021/06/27 06:43:55;;;;;;;5.22;2.13;;;;;;;26.19;44.98;100396.25;5029264;28;20049;-41
2021/06/27 06:46:22;;;;;;;2.33;1.92;;;;;;;26.20;44.90;100398.75;5030890;28;20417;-40
2021/06/27 06:48:49;;;;;;;7.53;2.33;;;;;;;26.20;45.02;100396.06;5029185;28;20041;-39
2021/06/27 06:51:17;;;;;;;11.23;2.55;;;;;;;26.26;44.66;100389.19;5029175;28;20041;-41
2021/06/27 06:53:44;;;;;;;10.13;2.58;;;;;;;26.27;44.61;100385.53;5026949;28;20060;-42
2021/06/27 06:56:11;;;;;;;5.70;2.70;;;;;;;26.28;44.22;100398.72;5028433;28;20079;-39
2021/06/27 06:58:38;;;;;;;3.53;1.92;;;;;;;26.25;44.42;100398.22;5025309;28;20084;-41
2021/06/27 07:01:05;;;;;;;4.45;1.75;;;;;;;26.27;43.87;100402.41;5030080;28;20037;-38
2021/06/27 07:03:32;;;;;;;7.53;2.28;;;;;;;26.14;44.19;100399.44;5029610;28;20037;-38
2021/06/27 07:05:59;;;;;;;2.30;2.10;;;;;;;26.08;44.13;100408.16;5031321;28;20125;-40
2021/06/27 07:08:28;;;;;;;3.38;2.38;;;;;;;26.12;44.42;100404.13;5031010;28;20050;-40
2021/06/27 07:10:56;;;;;;;6.13;2.58;;;;;;;26.18;43.86;100402.59;5029261;28;20044;-35
2021/06/27 07:13:23;;;;;;;3.88;1.52;;;;;;;26.16;43.06;100407.31;5028999;28;20037;-36
2021/06/27 07:15:50;;;;;;;3.95;2.03;;;;;;;26.16;43.38;100416.16;4980314;28;56343;-39
2021/06/27 07:18:19;;;;;;;6.97;2.40;;;;;;;26.21;43.20;100411.13;4996108;28;20433;-36
2021/06/27 07:20:48;;;;;;;4.53;1.52;;;;;;;26.37;42.80;100412.88;4992245;28;20080;-40
2021/06/27 07:23:15;;;;;;;1.98;1.45;;;;;;;26.28;42.63;100417.41;4990159;28;20049;-42
2021/06/27 07:25:42;;;;;;;8.00;1.88;;;;;;;26.27;42.95;100413.09;4991261;28;20093;-36
2021/06/27 07:28:09;;;;;;;1.60;1.42;;;;;;;26.31;42.79;100425.09;4989724;28;20046;-42
2021/06/27 07:30:36;;;;;;;7.15;1.50;;;;;;;26.33;42.53;100422.25;4984065;28;20054;-47
2021/06/27 07:33:04;;;;;;;7.15;1.60;;;;;;;26.29;42.75;100415.56;4989187;28;20065;-44
2021/06/27 07:35:32;;;;;;;2.70;1.50;;;;;;;26.35;42.88;100413.03;4984673;28;20094;-46
2021/06/27 07:37:59;;;;;;;4.15;1.80;;;;;;;26.31;42.76;100413.56;4986973;28;20050;-44
2021/06/27 07:40:26;;;;;;;5.53;2.50;;;;;;;26.26;43.55;100423.94;4984189;28;20084;-45
2021/06/27 07:42:54;;;;;;;3.10;1.88;;;;;;;26.25;43.94;100423.09;4987411;28;20101;-45
2021/06/27 07:45:21;;;;;;;4.75;2.30;;;;;;;26.31;44.28;100421.56;4986356;28;20105;-45
2021/06/27 07:47:48;;;;;;;3.35;2.25;;;;;;;26.20;44.13;100421.97;4987096;28;20720;-44
2021/06/27 07:50:15;;;;;;;4.35;2.30;;;;;;;26.30;44.66;100414.56;4987925;28;20069;-46
2021/06/27 07:52:42;;;;;;;6.05;2.10;;;;;;;26.38;44.37;100410.03;4984757;28;20042;-46
2021/06/27 07:55:09;;;;;;;2.13;1.52;;;;;;;26.41;43.95;100405.31;4984239;28;20066;-43
2021/06/27 07:57:38;;;;;;;5.18;2.25;;;;;;;26.39;43.64;100402.84;4987500;28;20544;-45
2021/06/27 08:00:07;;;;;;;2.25;1.80;;;;;;;26.38;43.81;100398.50;4988807;28;20128;-44
2021/06/27 08:02:41;;;;;;;6.95;1.77;;;;;;;26.44;43.54;100405.00;4988101;28;20497;-44
2021/06/27 08:05:09;;;;;;;3.75;2.20;;;;;;;26.39;43.34;100394.81;4984029;28;20039;-44
2021/06/27 08:07:36;;;;;;;2.65;2.42;;;;;;;26.25;44.02;100400.88;4983778;28;20061;-44
2021/06/27 08:10:04;;;;;;;6.68;2.63;;;;;;;26.29;44.43;100399.53;4988530;28;20042;-43
2021/06/27 08:12:32;;;;;;;3.08;2.20;;;;;;;26.44;45.05;100388.97;4990776;28;20051;-44
2021/06/27 08:14:59;;;;;;;4.88;2.30;;;;;;;26.30;44.84;100385.16;4986884;28;20038;-45
2021/06/27 08:17:26;;;;;;;5.15;3.10;;;;;;;26.25;44.88;100382.19;4988673;28;20101;-45
2021/06/27 08:19:53;;;;;;;4.55;2.05;;;;;;;26.21;44.67;100386.25;4988062;28;20039;-44
2021/06/27 08:22:20;;;;;;;2.60;2.10;;;;;;;26.28;44.44;100389.88;4989488;28;20039;-44
2021/06/27 08:24:47;;;;;;;6.22;2.53;;;;;;;26.22;44.22;100388.72;4985876;28;20047;-45
2021/06/27 08:27:14;;;;;;;4.82;2.10;;;;;;;26.24;44.11;100388.53;4986330;28;20401;-43
2021/06/27 08:29:41;;;;;;;4.43;2.03;;;;;;;26.31;43.93;100386.81;4982705;28;20100;-44
2021/06/27 08:32:08;;;;;;;4.47;2.10;;;;;;;26.43;43.65;100390.81;4988763;28;20038;-45
2021/06/27 08:34:35;;;;;;;2.97;2.45;;;;;;;26.45;43.35;100391.47;4989709;28;20058;-40
2021/06/27 08:37:02;;;;;;;3.38;2.20;;;;;;;26.47;43.41;100392.13;4985044;28;20536;-44
2021/06/27 08:39:31;;;;;;;1.90;1.80;;;;;;;26.52;43.26;100387.06;4984473;28;20054;-44
2021/06/27 08:41:58;;;;;;;5.25;1.70;;;;;;;26.50;43.24;100383.75;4985854;28;20039;-43
2021/06/27 08:44:26;;;;;;;3.38;1.90;;;;;;;26.53;43.17;100378.06;4984579;28;20449;-42
2021/06/27 08:46:55;;;;;;;3.53;2.42;;;;;;;26.56;43.23;100383.03;4981798;28;20117;-42
2021/06/27 08:49:22;;;;;;;4.20;2.08;;;;;;;26.57;43.05;100375.84;4986927;28;20046;-43
2021/06/27 08:51:50;;;;;;;3.30;1.83;;;;;;;26.57;42.95;100379.34;4991404;28;20034;-42
2021/06/27 08:54:17;;;;;;;2.58;1.80;;;;;;;26.58;43.07;100383.72;4991414;28;20046;-41
2021/06/27 08:56:45;;;;;;;4.75;2.17;;;;;;;26.59;43.45;100385.38;4992932;28;20051;-41
2021/06/27 08:59:12;;;;;;;3.60;1.88;;;;;;;26.54;42.87;100382.41;4993156;28;20045;-41
2021/06/27 09:01:39;;;;;;;1.88;1.55;;;;;;;26.48;43.01;100376.94;4993893;28;20053;-41
2021/06/27 09:04:06;;;;;;;3.75;2.05;;;;;;;26.38;43.10;100382.47;4993177;28;20497;-41
2021/06/27 09:06:36;;;;;;;4.45;1.75;;;;;;;26.39;43.05;100381.44;4993814;28;20054;-41
2021/06/27 09:09:16;;;;;;;3.42;1.73;;;;;;;26.48;42.84;100384.94;4993270;28;20038;-41
2021/06/27 09:11:59;;;;;;;3.80;1.77;;;;;;;26.48;42.60;100372.41;4993320;28;20046;-41
2021/06/27 09:14:27;;;;;;;4.03;1.90;;;;;;;26.50;43.02;100378.41;4991186;28;20053;-35
2021/06/27 09:17:09;;;;;;;3.30;1.65;;;;;;;26.49;43.20;100374.06;4993392;28;20062;-41
2021/06/27 09:19:59;;;;;;;4.40;2.58;;;;;;;26.48;43.81;100375.09;4993303;28;20054;-42
2021/06/27 09:22:35;;;;;;;3.00;2.22;;;;;;;26.51;43.93;100380.06;4993579;28;20101;-41
2021/06/27 09:25:18;;;;;;;6.78;2.40;;;;;;;26.51;44.23;100379.22;4993244;28;20089;-42
2021/06/27 09:27:56;;;;;;;5.95;3.25;;;;;;;26.46;44.65;100373.59;4992849;28;20051;-41
2021/06/27 09:30:23;;;;;;;7.22;2.92;;;;;;;26.47;44.36;100375.25;4993380;28;20042;-42
2021/06/27 09:32:54;;;;;;;3.47;3.17;;;;;;;26.46;44.15;100369.06;4993499;28;20034;-42
2021/06/27 09:35:34;;;;;;;3.78;2.88;;;;;;;26.39;44.35;100358.22;4981529;28;20055;-41
2021/06/27 09:38:38;;;;;;;10.93;3.40;;;;;;;26.42;44.00;100362.44;4990427;28;20051;-44
2021/06/27 09:41:24;;;;;;;4.93;3.13;;;;;;;26.38;43.64;100361.09;4993099;28;20043;-41
2021/06/27 09:44:06;;;;;;;4.03;3.15;;;;;;;26.39;43.46;100362.75;4992137;28;20069;-41
2021/06/27 09:46:38;;;;;;;3.70;3.38;;;;;;;26.32;43.02;100365.28;4992188;28;20061;-41
2021/06/27 09:49:13;;;;;;;7.05;3.55;;;;;;;26.26;42.54;100362.47;4992322;28;20042;-41
2021/06/27 09:51:48;;;;;;;4.13;3.00;;;;;;;26.29;42.81;100367.47;4992811;28;20054;-42
2021/06/27 09:54:18;;;;;;;8.90;4.43;;;;;;;26.32;42.99;100375.16;4990595;28;20409;-43
2021/06/27 09:56:45;;;;;;;8.27;3.20;;;;;;;26.33;43.13;100376.81;4993230;28;20832;-46
2021/06/27 09:59:14;;;;;;;5.90;3.42;;;;;;;26.42;42.76;100378.47;4992899;28;20043;-40
2021/06/27 10:01:42;;;;;;;4.30;3.60;;;;;;;26.48;42.17;100371.59;4993120;28;20050;-42
2021/06/27 10:04:31;;;;;;;8.07;3.35;;;;;;;26.47;42.28;100362.72;4993418;28;20047;-40
2021/06/27 10:07:00;;;;;;;4.88;3.10;;;;;;;26.47;41.88;100365.38;4993813;28;20042;-39
2021/06/27 10:09:38;;;;;;;5.95;2.75;;;;;;;26.48;41.61;100364.41;4995730;28;20062;-39
2021/06/27 10:12:08;;;;;;;4.70;2.88;;;;;;;26.46;41.27;100362.91;4996139;28;20117;-39
2021/06/27 10:14:51;;;;;;;3.67;3.00;;;;;;;26.45;41.12;100362.06;4995691;28;20042;-39
2021/06/27 10:17:20;;;;;;;4.07;2.53;;;;;;;26.38;40.91;100358.41;4993930;28;20497;-40
2021/06/27 10:19:47;;;;;;;6.38;2.47;;;;;;;26.36;40.72;100363.09;4994363;28;20129;-39
2021/06/27 10:22:15;;;;;;;4.53;2.63;;;;;;;26.36;40.88;100353.22;4994613;28;20117;-38
2021/06/27 10:24:43;;;;;;;3.53;2.83;;;;;;;26.36;41.04;100355.06;4995984;28;20050;-40
2021/06/27 10:27:10;;;;;;;3.83;2.55;;;;;;;26.37;41.04;100346.06;4992799;28;20045;-39
2021/06/27 10:29:41;;;;;;;3.90;2.65;;;;;;;26.39;40.69;100349.38;4996035;28;20046;-39
2021/06/27 10:32:09;;;;;;;3.72;2.50;;;;;;;26.38;40.57;100348.56;4995762;28;20378;-38
2021/06/27 10:34:36;;;;;;;5.55;2.83;;;;;;;26.37;40.58;100357.59;4995064;28;20446;-40
2021/06/27 10:37:15;;;;;;;4.93;2.97;;;;;;;26.38;40.36;100348.56;4995337;28;20038;-39
2021/06/27 10:39:59;;;;;;;3.72;2.85;;;;;;;26.37;40.22;100351.41;4995378;28;20038;-40
2021/06/27 10:42:59;;;;;;;3.05;2.60;;;;;;;26.32;40.09;100345.75;4992738;28;20055;-40
2021/06/27 10:45:52;;;;;;;3.25;2.85;;;;;;;26.34;39.84;100349.06;4995656;28;20054;-38
2021/06/27 10:48:34;;;;;;;4.93;2.30;;;;;;;26.33;40.53;100342.91;4994620;28;20034;-39
2021/06/27 10:51:13;;;;;;;5.50;3.08;;;;;;;26.31;40.52;100354.75;4995633;28;20051;-39
2021/06/27 10:54:15;;;;;;;5.45;2.33;;;;;;;26.29;40.63;100352.28;4994145;28;20409;-38
2021/06/27 10:56:59;;;;;;;2.47;2.28;;;;;;;26.28;40.34;100347.94;4994650;28;20050;-39
2021/06/27 10:59:38;;;;;;;;;;;;;;;26.31;40.52;100347.59;4994995;28;20502;-39
2021/06/27 11:02:19;;;;;;;2.60;2.40;;;;;;;26.28;40.27;100358.63;4995663;28;19930;-40
2021/06/27 11:04:48;;;;;;;4.28;2.28;;;;;;;26.31;40.16;100344.06;4994063;28;20078;-40
2021/06/27 11:07:35;;;;;;;2.30;2.10;;;;;;;26.27;40.22;100348.13;4995176;28;20042;-38
2021/06/27 11:10:20;;;;;;;3.90;3.13;;;;;;;26.31;39.91;100349.41;4994329;28;20069;-38
2021/06/27 11:13:06;;;;;;;8.15;2.55;;;;;;;26.30;40.17;100342.41;4995728;28;20043;-39
2021/06/27 11:15:57;;;;;;;5.57;2.17;;;;;;;26.29;39.94;100335.41;4986027;28;20430;-41
2021/06/27 11:18:45;;;;;;;4.55;2.40;;;;;;;26.29;40.14;100330.91;4988694;28;20091;-41
2021/06/27 11:21:15;;;;;;;2.78;2.40;;;;;;;26.27;39.94;100332.09;4987719;28;20047;-41
2021/06/27 11:23:54;;;;;;;7.82;2.42;;;;;;;26.27;40.19;100332.09;4990017;28;20051;-41
2021/06/27 11:26:43;;;;;;;2.97;2.50;;;;;;;26.28;40.01;100323.91;4992104;28;20042;-39
2021/06/27 11:29:22;;;;;;;3.90;2.45;;;;;;;26.28;39.80;100336.44;4990517;28;20038;-42
2021/06/27 11:31:50;;;;;;;2.38;2.28;;;;;;;26.26;39.99;100333.94;4987310;28;20046;-39
2021/06/27 11:34:20;;;;;;;3.60;2.30;;;;;;;26.27;40.15;100326.75;4991168;28;20049;-41
2021/06/27 11:36:51;;;;;;;4.38;2.38;;;;;;;26.31;39.70;100325.38;4987607;28;20042;-41